Airfield :







YOU CAN JOIN US ON...

 
LOGIN :

Register | Disclaimer

   EN    FR    IT 

 









Legend :    VFR   Marginal VFR   IFR   Intensive IFR   Very Intensive IFR
Visi :
Ceiling :
>= 8 km
>= 3000ft
5 to 8 km
1000 to 3000 ft
1500m to 5 km
500 to 1000 ft
800 to 1500m
200 to 500 ft
< 800m
< 200 ft
Symbols :   Thunderstorms  Fog  Heavy snow  Heavy precipitations  Wind > 20 kt






- Airport Elevation : 496 ft
- IATA code : YQX


CYQX - Gander

CURRENT METAR :
  • 190600Z 27011KT 20SM OVC250 16/13 A3009 RMK CI8 SLP192

EXPIRED METARs :
  • 190500Z 27010KT 20SM BKN250 17/13 A3009 RMK CI7 SLP190
  • 190400Z 25012G19KT 20SM OVC250 17/13 A3006 RMK CI8 SLP181 DENSITY ALT 800FT
  • 190300Z 24014KT 20SM BKN240 19/13 A3004 RMK CI7 SLP176 DENSITY ALT 900FT
  • 190200Z 25009KT 20SM BKN240 19/13 A3005 RMK CI6 SLP179 DENSITY ALT 1000FT

TAF TAF CYQX
Valid from the 19 at 06:00 until the 20 at 06:00 UTC


190540Z 1906/2006 26008KT P6SM SCT240
BECMG 1912/1914 24010KT
FM191700 24010G20KT P6SM FEW100
FM192100 24012G22KT P6SM SCT080
FM192300 24015KT P6SM -SHRA SCT020 OVC080
FM200200 24015KT P6SM FEW020 SCT060 RMK NXT FCST BY 191200Z
CZQX FIR / North America



MET'MAP, your aeronautical weather chart ! - Copyright ORBIFLY December 2007 - Disclaimer

ORBIFLY MET'MAP TEAM :

Programming & Development : Alexandra Zaïnal
Original concept : Baudouin d'Aumeries
Technical & hardware support : Manuel Goepfert
Assistance : Marc-Olivier Méhu




SOURCES & CREDITS :

   NOAA